Terminal Aerodrome Forecast
Issued by NWS Wakefield, VA

Home | Current Version | Previous Version | Text Only | Print | Product List | Glossary On
Versions: 1 2 3 4 5 6 7 8 9 10 11 12 13 14 15 16 17 18 19 20 21 22 23 24 25 26 27 28
216
FTUS41 KAKQ 170908 AAA
TAFORF
TAF AMD
KORF 170908Z 1709/1806 21004KT P6SM OVC008
      TEMPO 1709/1713 OVC010
     FM171400 19005KT P6SM VCSH OVC012
     FM172000 20008KT P6SM OVC012=

USA.gov is the U.S. government's official web portal to all federal, state and local government web resources and services.